Time;durP1;ratioP1;P1;durP2;ratioP2;P2;SDS_P1;SDS_P2;PMS_P1;PMS_P2;Temp;Humidity;BMP_temperature;BMP_pressure;BME280_temperature;BME280_humidity;BME280_pressure;Samples;Min_cycle;Max_cycle;Signal;HPM_P1;HPM_P2
2021/05/06 00:00:54;;;;;;;7.25;1.92;;;6.60;8.00;;;;;;5099749;28;20044;-70
2021/05/06 00:10:39;;;;;;;3.10;1.75;;;6.60;9.00;;;;;;5095298;28;20316;-71
2021/05/06 00:32:03;;;;;;;1.85;1.48;;;6.40;9.80;;;;;;5094717;28;20055;-71
2021/05/06 00:34:51;;;;;;;3.38;1.40;;;6.50;9.90;;;;;;5097857;28;20040;-71
2021/05/06 00:37:47;;;;;;;4.28;1.73;;;6.40;9.10;;;;;;5099317;28;20044;-70
2021/05/06 00:40:45;;;;;;;3.17;1.50;;;6.40;9.80;;;;;;5101369;28;20911;-70
2021/05/06 00:43:58;;;;;;;2.63;1.50;;;6.40;9.40;;;;;;5097206;28;20031;-71
2021/05/06 00:53:55;;;;;;;4.15;1.38;;;6.50;9.40;;;;;;5097634;28;20085;-71
2021/05/06 00:59:33;;;;;;;2.65;1.50;;;6.30;9.50;;;;;;5102966;28;20040;-72
2021/05/06 01:02:41;;;;;;;3.10;1.42;;;6.40;9.50;;;;;;5098875;28;20047;-70
2021/05/06 01:05:31;;;;;;;3.78;1.50;;;6.40;8.90;;;;;;5096143;28;20035;-71
2021/05/06 01:08:22;;;;;;;2.50;1.48;;;6.50;8.70;;;;;;5099421;28;20495;-71
2021/05/06 01:11:17;;;;;;;1.40;1.30;;;6.50;8.50;;;;;;5097830;28;20130;-71
2021/05/06 01:14:06;;;;;;;2.13;1.42;;;6.50;8.10;;;;;;5098104;28;20512;-71
2021/05/06 01:17:03;;;;;;;3.25;1.17;;;6.40;8.30;;;;;;5104122;28;20046;-70
2021/05/06 01:19:50;;;;;;;3.10;1.83;;;6.50;8.60;;;;;;5102180;28;20044;-71
2021/05/06 01:59:12;;;;;;;4.07;1.52;;;6.70;5.30;;;;;;5048170;28;20078;-67
2021/05/06 02:02:00;;;;;;;3.58;1.40;;;6.70;5.30;;;;;;5047353;28;20048;-68
2021/05/06 02:04:47;;;;;;;5.45;1.60;;;6.70;4.80;;;;;;5045419;28;20041;-68
2021/05/06 02:07:37;;;;;;;3.22;1.40;;;6.80;4.80;;;;;;5048310;28;20179;-67
2021/05/06 02:10:27;;;;;;;3.05;1.30;;;6.80;4.30;;;;;;5046461;28;20143;-66
2021/05/06 02:13:16;;;;;;;4.47;1.80;;;6.70;4.20;;;;;;5044539;28;20044;-67
2021/05/06 02:16:05;;;;;;;6.00;1.70;;;6.80;3.80;;;;;;5047510;28;20415;-68
2021/05/06 02:18:53;;;;;;;2.70;1.40;;;6.80;2.70;;;;;;5051321;28;20049;-67
2021/05/06 02:21:43;;;;;;;4.53;1.55;;;6.80;2.70;;;;;;5051394;28;20118;-67
2021/05/06 02:24:30;;;;;;;3.60;1.50;;;6.80;2.40;;;;;;5049760;28;20036;-67
2021/05/06 02:27:17;;;;;;;4.85;1.63;;;6.80;1.90;;;;;;5048315;28;20573;-67
2021/05/06 02:30:07;;;;;;;3.90;1.38;;;6.80;1.40;;;;;;5049331;28;20124;-67
2021/05/06 02:32:54;;;;;;;3.53;1.45;;;6.70;1.70;;;;;;5044653;28;20049;-66
2021/05/06 02:35:43;;;;;;;4.13;2.42;;;6.70;2.70;;;;;;5047475;28;20432;-66
2021/05/06 02:38:30;;;;;;;4.10;1.85;;;6.70;2.70;;;;;;5052212;28;20122;-67
2021/05/06 02:41:17;;;;;;;3.92;1.60;;;6.60;2.60;;;;;;5048363;28;20563;-67
2021/05/06 02:44:06;;;;;;;3.00;1.63;;;6.60;3.30;;;;;;5043767;28;20496;-67
2021/05/06 02:46:53;;;;;;;3.88;1.90;;;6.60;3.50;;;;;;5049060;28;20048;-67
2021/05/06 02:49:44;;;;;;;3.35;1.67;;;6.60;3.80;;;;;;5032081;28;20050;-67
2021/05/06 02:52:35;;;;;;;4.38;2.28;;;6.60;3.70;;;;;;4963339;28;20050;-66
2021/05/06 02:55:27;;;;;;;4.40;1.98;;;6.70;4.10;;;;;;5021013;28;20045;-66
2021/05/06 02:58:18;;;;;;;4.60;2.30;;;6.60;3.90;;;;;;5027422;28;20589;-67
2021/05/06 03:04:11;;;;;;;4.60;2.25;;;6.60;5.80;;;;;;5024244;28;20508;-66
2021/05/06 03:07:00;;;;;;;1.77;1.58;;;6.60;5.00;;;;;;5024121;28;20191;-66
2021/05/06 03:09:57;;;;;;;5.05;2.30;;;6.70;4.50;;;;;;5026550;28;20037;-67
2021/05/06 03:25:06;;;;;;;7.18;2.28;;;6.70;5.10;;;;;;5020227;28;20100;-67
2021/05/06 03:28:00;;;;;;;3.67;2.13;;;6.70;5.40;;;;;;5028710;28;20042;-66
2021/05/06 03:31:05;;;;;;;7.07;2.60;;;6.70;4.60;;;;;;5024858;28;20057;-65
2021/05/06 03:43:41;;;;;;;4.00;1.95;;;6.80;3.30;;;;;;5024321;28;20656;-66
2021/05/06 03:46:57;;;;;;;7.40;2.25;;;6.80;2.70;;;;;;5021093;28;20436;-66
2021/05/06 03:50:13;;;;;;;2.70;1.77;;;6.80;2.90;;;;;;5026075;28;20046;-66
2021/05/06 04:14:57;;;;;;;3.83;2.10;;;6.40;6.20;;;;;;5023791;28;20087;-66
2021/05/06 04:17:54;;;;;;;5.05;2.17;;;6.40;7.00;;;;;;5035666;28;20049;-66
2021/05/06 04:27:00;;;;;;;6.93;2.35;;;6.40;7.70;;;;;;5026256;28;20052;-65
2021/05/06 04:36:08;;;;;;;7.82;2.38;;;6.50;8.50;;;;;;5025765;28;20038;-66
2021/05/06 04:38:55;;;;;;;5.07;2.47;;;6.50;8.70;;;;;;5029912;28;20041;-67
2021/05/06 04:41:48;;;;;;;3.85;2.45;;;6.50;9.20;;;;;;5029002;28;20063;-66
2021/05/06 04:54:14;;;;;;;6.97;2.60;;;6.50;9.90;;;;;;5025798;28;20112;-67
2021/05/06 04:57:37;;;;;;;3.72;2.00;;;6.70;9.50;;;;;;5027760;28;20037;-67
2021/05/06 05:03:37;;;;;;;3.47;2.25;;;7.30;6.20;;;;;;5026797;28;20044;-67
2021/05/06 05:06:27;;;;;;;5.65;2.03;;;7.80;2.80;;;;;;5027674;28;20053;-67
2021/05/06 05:09:35;;;;;;;3.05;2.05;;;7.50;3.60;;;;;;5028900;28;20045;-66
2021/05/06 05:12:40;;;;;;;4.40;1.65;;;7.30;3.10;;;;;;5025957;28;20051;-66
2021/05/06 05:18:49;;;;;;;6.07;2.50;;;7.30;4.20;;;;;;5029223;28;20505;-66
2021/05/06 05:24:52;;;;;;;5.90;2.63;;;8.50;1.00;;;;;;5006023;28;20045;-67
2021/05/06 05:27:39;;;;;;;5.85;3.80;;;9.50;1.00;;;;;;5027192;28;20416;-67
2021/05/06 05:30:28;;;;;;;7.82;3.50;;;9.20;1.00;;;;;;5029329;28;20519;-66
2021/05/06 05:33:24;;;;;;;5.47;3.47;;;8.40;1.00;;;;;;5027543;28;20163;-66
2021/05/06 05:36:15;;;;;;;5.00;2.35;;;8.30;1.00;;;;;;5026192;28;20048;-66
2021/05/06 05:39:09;;;;;;;5.00;2.92;;;8.00;1.00;;;;;;5029098;28;20049;-67
2021/05/06 05:54:47;;;;;;;11.63;2.85;;;7.80;3.40;;;;;;4986388;28;20121;-66
2021/05/06 05:57:34;;;;;;;7.07;2.63;;;7.80;3.40;;;;;;4984143;28;20066;-67
2021/05/06 06:00:21;;;;;;;8.27;2.90;;;7.90;3.40;;;;;;5023756;28;20493;-67
2021/05/06 06:03:09;;;;;;;4.82;2.78;;;7.80;3.40;;;;;;5026988;28;21589;-66
2021/05/06 06:05:57;;;;;;;9.13;2.33;;;7.80;3.70;;;;;;5023496;28;20050;-68
2021/05/06 06:08:44;;;;;;;3.97;2.20;;;7.70;3.30;;;;;;5027198;28;20109;-67
2021/05/06 06:11:32;;;;;;;8.02;2.33;;;7.90;2.70;;;;;;5026648;28;20041;-67
2021/05/06 06:14:23;;;;;;;9.25;2.60;;;8.00;3.50;;;;;;5025531;28;20132;-66
2021/05/06 06:17:11;;;;;;;3.90;1.85;;;8.10;2.80;;;;;;5025665;28;20052;-68
2021/05/06 06:20:00;;;;;;;4.75;2.17;;;8.10;1.70;;;;;;5026932;28;20065;-67
2021/05/06 06:22:48;;;;;;;4.35;2.20;;;8.10;2.60;;;;;;5026276;28;20045;-67
2021/05/06 06:25:35;;;;;;;4.97;1.90;;;8.10;1.70;;;;;;5023580;28;20489;-67
2021/05/06 06:28:23;;;;;;;7.30;2.20;;;8.00;2.00;;;;;;5029148;28;20060;-67
2021/05/06 06:31:15;;;;;;;8.93;2.35;;;8.00;2.40;;;;;;5027756;28;20907;-67
2021/05/06 06:34:03;;;;;;;6.20;2.10;;;8.10;2.40;;;;;;5024117;28;20449;-66
2021/05/06 06:36:51;;;;;;;4.60;1.83;;;8.00;2.60;;;;;;5022320;28;20461;-67
2021/05/06 06:39:40;;;;;;;7.30;2.10;;;8.10;2.10;;;;;;5026177;28;20045;-67
2021/05/06 06:42:27;;;;;;;5.25;1.90;;;8.00;2.60;;;;;;5028748;28;20497;-69
2021/05/06 06:45:15;;;;;;;3.60;2.15;;;8.00;1.60;;;;;;5020189;28;20416;-67
2021/05/06 06:48:02;;;;;;;8.20;3.13;;;8.10;1.70;;;;;;5026427;28;20110;-67
2021/05/06 06:50:49;;;;;;;5.10;2.10;;;8.20;1.00;;;;;;5028169;28;20508;-68
2021/05/06 06:53:36;;;;;;;4.55;1.67;;;8.10;1.60;;;;;;5020755;28;20800;-68
2021/05/06 06:56:24;;;;;;;4.43;2.25;;;8.10;1.00;;;;;;5023410;28;20056;-66
2021/05/06 06:59:11;;;;;;;6.13;2.30;;;8.10;1.30;;;;;;5027773;28;20496;-67
2021/05/06 07:01:59;;;;;;;5.38;1.95;;;8.10;3.60;;;;;;5024071;28;20141;-66
2021/05/06 07:04:46;;;;;;;6.60;2.05;;;8.00;4.20;;;;;;5021419;28;20033;-67
2021/05/06 07:07:33;;;;;;;6.88;2.35;;;8.10;5.10;;;;;;5028163;28;20536;-67
2021/05/06 07:10:20;;;;;;;5.22;2.42;;;8.10;5.90;;;;;;5026480;28;20112;-68
2021/05/06 07:13:09;;;;;;;5.80;2.28;;;8.00;7.20;;;;;;5029028;28;20038;-67
2021/05/06 07:15:58;;;;;;;3.97;2.20;;;8.00;8.10;;;;;;5021955;28;20069;-67
2021/05/06 07:18:46;;;;;;;5.38;1.98;;;8.00;7.60;;;;;;5024379;28;20046;-67
2021/05/06 07:21:33;;;;;;;8.35;2.22;;;8.00;6.50;;;;;;5027727;28;21447;-67
2021/05/06 07:24:20;;;;;;;7.43;2.38;;;8.10;8.00;;;;;;5023849;28;20053;-66
2021/05/06 07:27:11;;;;;;;3.55;1.70;;;8.10;6.90;;;;;;5024125;28;20088;-66
2021/05/06 07:30:01;;;;;;;6.38;2.08;;;8.00;7.90;;;;;;5025054;28;20049;-66
2021/05/06 07:32:50;;;;;;;8.20;2.63;;;8.10;7.00;;;;;;5022435;28;20073;-66
2021/05/06 07:35:39;;;;;;;4.70;2.65;;;8.10;7.30;;;;;;5021426;28;20061;-67
2021/05/06 07:38:30;;;;;;;6.22;1.90;;;8.20;6.90;;;;;;5028026;28;20045;-67
2021/05/06 07:41:18;;;;;;;5.38;2.40;;;8.10;6.40;;;;;;5028676;28;20041;-67
2021/05/06 07:44:08;;;;;;;4.88;2.50;;;8.20;6.40;;;;;;5025683;28;20692;-66
2021/05/06 07:47:10;;;;;;;6.57;2.28;;;8.30;5.60;;;;;;5025455;28;20590;-67
2021/05/06 07:50:02;;;;;;;5.05;2.28;;;8.30;4.10;;;;;;5027868;28;20453;-66
2021/05/06 07:52:55;;;;;;;7.72;2.40;;;8.30;5.40;;;;;;5023032;28;20064;-67
2021/05/06 07:55:44;;;;;;;5.68;2.35;;;8.40;4.80;;;;;;5021221;28;20076;-69
2021/05/06 07:58:31;;;;;;;4.70;2.20;;;8.50;5.50;;;;;;5024173;28;20064;-67
2021/05/06 08:01:18;;;;;;;5.95;2.67;;;8.50;5.40;;;;;;5024294;28;20046;-67
2021/05/06 08:04:06;;;;;;;6.03;2.83;;;8.60;3.90;;;;;;5026304;28;20924;-68
2021/05/06 08:06:53;;;;;;;5.03;2.28;;;8.60;5.00;;;;;;5023480;28;20469;-67
2021/05/06 08:09:41;;;;;;;5.28;2.53;;;8.70;3.90;;;;;;5025541;28;20049;-66
2021/05/06 08:12:28;;;;;;;6.55;2.40;;;8.60;2.10;;;;;;5020238;28;20049;-68
2021/05/06 08:15:16;;;;;;;7.57;2.80;;;8.80;3.50;;;;;;5022279;28;21687;-68
2021/05/06 08:18:03;;;;;;;4.63;2.13;;;8.90;2.50;;;;;;5027823;28;20200;-66
2021/05/06 08:20:52;;;;;;;3.70;2.08;;;8.90;1.00;;;;;;5026122;28;20044;-66
2021/05/06 08:23:41;;;;;;;7.22;2.22;;;9.10;1.70;;;;;;5023033;28;20045;-68
2021/05/06 08:26:28;;;;;;;5.88;2.03;;;9.10;1.00;;;;;;5020763;28;20072;-67
2021/05/06 08:29:15;;;;;;;8.27;3.15;;;9.20;1.00;;;;;;5025282;28;20048;-67
2021/05/06 08:32:03;;;;;;;5.72;2.25;;;9.20;1.00;;;;;;5024416;28;20540;-67
2021/05/06 08:34:51;;;;;;;6.15;2.05;;;9.20;1.00;;;;;;5022973;28;20129;-67
2021/05/06 08:37:39;;;;;;;7.40;1.95;;;9.30;1.00;;;;;;5029821;28;20454;-67
2021/05/06 08:40:26;;;;;;;10.85;2.22;;;9.30;1.00;;;;;;5025510;28;20792;-69
2021/05/06 08:43:13;;;;;;;4.25;1.80;;;9.20;1.00;;;;;;5025037;28;20076;-68
2021/05/06 08:46:01;;;;;;;3.90;2.50;;;9.20;1.00;;;;;;5022098;28;20061;-67
2021/05/06 08:48:49;;;;;;;6.13;1.83;;;9.30;1.00;;;;;;5024655;28;20046;-67
2021/05/06 08:51:37;;;;;;;7.55;2.78;;;9.30;1.00;;;;;;5023768;28;20193;-66
2021/05/06 08:54:25;;;;;;;9.88;2.58;;;9.30;1.00;;;;;;5017827;28;20128;-67
2021/05/06 08:57:13;;;;;;;5.75;2.28;;;9.40;1.00;;;;;;5028433;28;20041;-68
2021/05/06 09:00:01;;;;;;;9.25;2.67;;;9.30;1.00;;;;;;5025720;28;20037;-67
2021/05/06 09:02:49;;;;;;;6.07;1.75;;;9.40;1.00;;;;;;5028944;28;20820;-67
2021/05/06 09:05:56;;;;;;;10.18;2.40;;;9.40;1.00;;;;;;5024365;28;20476;-68
2021/05/06 09:08:45;;;;;;;3.95;1.92;;;9.40;1.00;;;;;;5027337;28;20538;-68
2021/05/06 09:11:35;;;;;;;4.47;1.80;;;9.20;1.00;;;;;;5026735;28;20255;-67
2021/05/06 09:14:35;;;;;;;4.20;1.98;;;9.40;1.00;;;;;;5026088;28;20496;-67
2021/05/06 09:17:25;;;;;;;9.40;2.42;;;9.50;1.00;;;;;;5031418;28;20455;-67
2021/05/06 09:20:15;;;;;;;6.80;2.30;;;9.50;1.00;;;;;;5027773;28;20408;-67
2021/05/06 09:23:05;;;;;;;5.70;2.30;;;9.70;1.00;;;;;;5021223;28;20464;-66
2021/05/06 09:25:52;;;;;;;3.70;2.00;;;9.80;1.00;;;;;;5022415;28;20122;-67
2021/05/06 09:28:40;;;;;;;3.17;2.03;;;9.90;1.00;;;;;;5030961;28;20049;-68
2021/05/06 09:31:27;;;;;;;6.90;3.05;;;9.60;1.00;;;;;;5031041;28;20045;-67
2021/05/06 09:34:15;;;;;;;3.60;2.08;;;9.80;1.00;;;;;;5025445;28;20046;-67
2021/05/06 09:37:02;;;;;;;9.07;2.58;;;9.80;1.00;;;;;;5027775;28;20056;-67
2021/05/06 09:39:57;;;;;;;7.22;2.35;;;9.70;1.00;;;;;;5026174;28;20075;-68
2021/05/06 09:42:48;;;;;;;2.95;1.80;;;9.80;1.00;;;;;;5031449;28;20102;-68
2021/05/06 09:45:37;;;;;;;4.78;1.77;;;9.80;1.00;;;;;;5023557;28;20042;-68
2021/05/06 09:48:25;;;;;;;5.97;2.70;;;9.80;1.00;;;;;;5027847;28;20072;-68
2021/05/06 09:51:12;;;;;;;9.73;2.58;;;9.80;1.00;;;;;;5026576;28;20049;-67
2021/05/06 09:53:59;;;;;;;7.72;2.10;;;9.70;1.00;;;;;;5025693;28;20433;-67
2021/05/06 09:56:56;;;;;;;5.35;2.10;;;9.70;1.00;;;;;;5027389;28;20084;-67
2021/05/06 09:59:43;;;;;;;8.02;2.42;;;9.70;1.00;;;;;;5028627;28;20131;-67
2021/05/06 10:02:36;;;;;;;6.50;2.15;;;9.60;1.00;;;;;;5027906;28;20536;-68
2021/05/06 10:05:23;;;;;;;6.25;2.47;;;9.90;1.00;;;;;;5024330;28;20033;-68
2021/05/06 10:08:11;;;;;;;4.38;1.75;;;10.00;1.00;;;;;;5027215;28;20045;-69
2021/05/06 10:11:07;;;;;;;8.43;3.40;;;10.10;1.00;;;;;;5026628;28;20485;-68
2021/05/06 10:13:57;;;;;;;7.55;2.80;;;10.10;1.00;;;;;;5023424;28;20067;-68
2021/05/06 10:16:45;;;;;;;4.47;2.33;;;9.80;1.00;;;;;;5025576;28;20413;-67
2021/05/06 10:19:34;;;;;;;9.15;2.63;;;10.00;1.00;;;;;;5026943;28;20060;-68
2021/05/06 10:22:24;;;;;;;6.60;2.70;;;10.00;1.00;;;;;;5024607;28;20057;-67
2021/05/06 10:25:16;;;;;;;3.53;1.73;;;9.90;1.00;;;;;;5021970;28;20461;-68
2021/05/06 10:28:05;;;;;;;5.88;2.63;;;10.10;1.00;;;;;;5030542;28;20098;-67
2021/05/06 10:30:54;;;;;;;6.65;2.53;;;10.20;1.00;;;;;;5029272;28;20045;-68
2021/05/06 10:33:43;;;;;;;3.33;1.83;;;10.40;1.00;;;;;;5024553;28;20678;-68
2021/05/06 10:36:33;;;;;;;10.30;2.15;;;10.30;1.00;;;;;;5021983;28;20518;-67
2021/05/06 10:39:20;;;;;;;4.50;2.35;;;10.20;1.00;;;;;;5026609;28;20477;-67
2021/05/06 10:42:35;;;;;;;6.85;2.45;;;10.30;1.00;;;;;;5027662;28;20316;-67
2021/05/06 10:45:34;;;;;;;6.55;2.38;;;10.20;1.00;;;;;;5021297;28;20042;-68
2021/05/06 10:48:21;;;;;;;6.57;2.85;;;10.20;1.00;;;;;;5025228;28;20402;-68
2021/05/06 10:51:27;;;;;;;6.80;2.78;;;10.00;1.00;;;;;;5025330;28;20050;-67
2021/05/06 10:54:27;;;;;;;7.72;2.70;;;10.00;1.00;;;;;;5022012;28;20065;-67
2021/05/06 10:57:31;;;;;;;11.50;4.80;;;10.10;1.00;;;;;;5026486;28;20049;-67
2021/05/06 11:00:28;;;;;;;7.10;2.92;;;10.20;1.00;;;;;;5023524;28;20149;-68
2021/05/06 11:03:28;;;;;;;11.45;3.33;;;10.00;1.00;;;;;;5025669;28;20405;-67
2021/05/06 11:06:34;;;;;;;6.32;2.42;;;10.20;1.00;;;;;;5023709;28;20033;-68
2021/05/06 11:09:51;;;;;;;6.53;2.53;;;10.20;1.00;;;;;;5026139;28;20076;-68
2021/05/06 11:12:39;;;;;;;5.25;1.85;;;10.10;1.00;;;;;;5022497;28;20425;-69
2021/05/06 11:15:32;;;;;;;3.50;1.83;;;10.10;1.00;;;;;;5017882;28;20037;-68
2021/05/06 11:18:42;;;;;;;3.22;1.17;;;10.10;1.00;;;;;;5026189;28;20564;-68
2021/05/06 11:21:41;;;;;;;3.55;1.60;;;10.10;1.00;;;;;;5027227;28;20507;-68
2021/05/06 11:24:28;;;;;;;2.85;1.27;;;10.20;1.00;;;;;;5024755;28;20049;-68
2021/05/06 11:27:21;;;;;;;5.82;1.40;;;10.00;1.00;;;;;;5026140;28;20068;-67
2021/05/06 11:30:30;;;;;;;6.18;1.50;;;10.20;1.00;;;;;;5025358;28;20125;-68
2021/05/06 11:33:28;;;;;;;5.03;2.00;;;10.10;1.00;;;;;;5023002;28;20424;-68
2021/05/06 11:36:18;;;;;;;3.95;1.55;;;10.10;1.00;;;;;;5023493;28;20049;-68
2021/05/06 11:39:26;;;;;;;2.08;1.23;;;10.20;1.00;;;;;;5025288;28;20066;-69
2021/05/06 11:42:13;;;;;;;3.70;1.20;;;10.20;1.00;;;;;;5025096;28;20050;-68
2021/05/06 11:45:23;;;;;;;3.53;1.80;;;10.40;1.00;;;;;;5023567;28;20102;-69
2021/05/06 11:48:13;;;;;;;6.28;1.90;;;10.60;1.00;;;;;;5025588;28;20049;-68
2021/05/06 11:51:00;;;;;;;5.07;2.15;;;10.60;1.00;;;;;;5029678;28;20056;-72
2021/05/06 11:54:02;;;;;;;3.63;1.30;;;10.60;1.00;;;;;;5023197;28;20093;-69
2021/05/06 11:56:53;;;;;;;4.65;1.58;;;10.50;1.00;;;;;;5023074;28;20045;-63
2021/05/06 11:59:45;;;;;;;5.25;1.30;;;10.50;1.00;;;;;;5023256;28;20097;-67
2021/05/06 12:02:33;;;;;;;6.43;4.25;;;10.30;1.00;;;;;;5021086;28;20137;-73
2021/05/06 12:05:23;;;;;;;5.72;2.58;;;10.30;1.00;;;;;;5024069;28;20042;-62
2021/05/06 12:08:10;;;;;;;4.18;1.40;;;10.30;1.00;;;;;;5022054;28;20180;-69
2021/05/06 12:10:59;;;;;;;4.53;1.30;;;10.10;1.00;;;;;;5024410;28;20576;-68
2021/05/06 12:13:46;;;;;;;2.78;1.13;;;10.30;1.00;;;;;;5022706;28;20041;-68
2021/05/06 12:16:36;;;;;;;3.13;1.30;;;10.40;1.00;;;;;;5021626;28;20572;-68
2021/05/06 12:19:24;;;;;;;1.30;1.00;;;10.40;1.00;;;;;;5026153;28;20072;-67
2021/05/06 12:22:12;;;;;;;3.60;1.30;;;10.20;1.00;;;;;;5024922;28;20050;-68
2021/05/06 12:24:59;;;;;;;2.17;1.10;;;10.40;1.00;;;;;;5022559;28;20409;-68
2021/05/06 12:27:46;;;;;;;2.30;1.05;;;10.40;1.00;;;;;;5020510;28;20188;-68
2021/05/06 12:30:34;;;;;;;1.70;1.02;;;10.10;1.00;;;;;;5024895;28;20045;-68
2021/05/06 12:33:29;;;;;;;3.67;1.13;;;10.00;1.00;;;;;;5020904;28;20052;-67
2021/05/06 12:36:18;;;;;;;2.47;1.08;;;10.10;1.00;;;;;;5026075;28;20045;-68
2021/05/06 12:39:08;;;;;;;2.13;1.05;;;10.20;1.00;;;;;;5028687;28;20512;-70
2021/05/06 12:41:57;;;;;;;2.05;0.77;;;10.00;1.00;;;;;;5027291;28;20048;-68
2021/05/06 12:44:52;;;;;;;2.85;1.17;;;10.00;2.00;;;;;;5027160;28;20413;-69
2021/05/06 12:47:43;;;;;;;1.52;1.00;;;10.00;1.60;;;;;;5026796;28;20659;-69
2021/05/06 12:50:36;;;;;;;3.40;1.30;;;10.00;4.10;;;;;;5027258;28;20045;-68
2021/05/06 12:53:27;;;;;;;3.38;1.55;;;10.10;5.40;;;;;;5024829;28;20730;-69
2021/05/06 12:56:25;;;;;;;2.40;1.35;;;10.00;6.00;;;;;;5025543;28;20049;-67
2021/05/06 12:59:26;;;;;;;1.90;1.30;;;9.90;7.30;;;;;;5030840;28;20044;-67
2021/05/06 13:02:13;;;;;;;3.13;1.75;;;9.80;6.40;;;;;;5029824;28;20060;-69
2021/05/06 13:05:01;;;;;;;2.35;1.10;;;9.80;8.70;;;;;;5028182;28;20125;-67
2021/05/06 13:07:51;;;;;;;1.63;1.05;;;9.90;9.60;;;;;;5025359;28;20053;-69
2021/05/06 13:10:44;;;;;;;3.00;1.20;;;9.70;7.80;;;;;;5028382;28;20038;-68
2021/05/06 13:13:39;;;;;;;1.67;1.08;;;9.80;13.00;;;;;;5025439;28;20041;-67
2021/05/06 13:16:38;;;;;;;2.17;1.50;;;9.80;13.40;;;;;;5026835;28;20041;-67
2021/05/06 13:19:34;;;;;;;2.45;1.42;;;9.50;12.70;;;;;;5023363;28;20100;-67
2021/05/06 13:22:22;;;;;;;2.03;1.50;;;9.40;14.80;;;;;;5025908;28;20041;-65
2021/05/06 13:25:11;;;;;;;4.97;1.63;;;9.60;19.10;;;;;;5027238;28;20115;-68
2021/05/06 13:28:00;;;;;;;3.50;2.00;;;9.60;19.90;;;;;;5026101;28;20053;-67
2021/05/06 13:30:48;;;;;;;2.00;1.55;;;9.40;21.50;;;;;;5027143;28;20049;-67
2021/05/06 13:33:37;;;;;;;1.60;1.50;;;9.40;23.00;;;;;;5024196;28;20050;-67
2021/05/06 13:36:29;;;;;;;3.55;1.52;;;9.30;23.50;;;;;;5028491;28;20084;-67
2021/05/06 13:39:17;;;;;;;12.00;6.90;;;9.20;24.40;;;;;;5028856;28;20406;-67
2021/05/06 13:42:04;;;;;;;3.42;1.80;;;9.30;26.50;;;;;;5025750;28;20053;-67
2021/05/06 13:44:55;;;;;;;2.42;1.65;;;9.40;29.50;;;;;;5026340;28;20060;-66
2021/05/06 13:47:47;;;;;;;3.47;1.88;;;9.40;29.40;;;;;;5027168;28;20037;-67
2021/05/06 13:50:34;;;;;;;3.47;2.40;;;9.20;28.10;;;;;;5029464;28;20508;-67
2021/05/06 13:53:21;;;;;;;4.70;2.60;;;9.20;31.40;;;;;;5025845;28;20062;-67
2021/05/06 13:56:09;;;;;;;4.35;2.22;;;9.20;32.00;;;;;;5024101;28;21944;-67
2021/05/06 13:58:56;;;;;;;3.92;2.40;;;9.40;34.10;;;;;;5025928;28;20493;-68
2021/05/06 14:01:51;;;;;;;4.70;2.58;;;9.30;30.80;;;;;;5027323;28;20051;-68
2021/05/06 14:04:39;;;;;;;4.18;2.97;;;9.30;31.80;;;;;;5026389;28;20038;-68
2021/05/06 14:07:27;;;;;;;3.33;2.10;;;9.30;33.20;;;;;;5022048;28;20334;-68
2021/05/06 14:10:14;;;;;;;3.88;2.80;;;9.20;32.40;;;;;;5029227;28;20442;-68
2021/05/06 14:13:01;;;;;;;4.13;2.92;;;9.20;35.30;;;;;;5025260;28;20052;-68
2021/05/06 14:15:49;;;;;;;5.10;2.50;;;9.50;37.60;;;;;;5026545;28;20045;-69
2021/05/06 14:18:38;;;;;;;5.57;2.95;;;9.40;32.70;;;;;;5024358;28;20525;-68
2021/05/06 14:21:26;;;;;;;4.85;2.72;;;9.50;35.70;;;;;;5024985;28;20056;-67
2021/05/06 14:24:14;;;;;;;8.82;4.93;;;9.50;34.90;;;;;;5024462;28;20037;-68
2021/05/06 14:27:02;;;;;;;5.38;2.95;;;9.50;37.60;;;;;;5025607;28;20042;-67
2021/05/06 14:29:49;;;;;;;4.05;2.08;;;9.40;37.00;;;;;;5028748;28;20519;-68
2021/05/06 14:32:37;;;;;;;4.85;2.90;;;9.20;37.80;;;;;;5023759;28;20528;-68
2021/05/06 14:35:25;;;;;;;8.23;4.32;;;9.20;38.10;;;;;;5026387;28;20049;-68
2021/05/06 14:38:13;;;;;;;5.65;2.88;;;9.40;41.70;;;;;;5025044;28;20051;-68
2021/05/06 14:41:03;;;;;;;3.83;3.08;;;9.30;38.30;;;;;;5028366;28;20518;-67
2021/05/06 14:43:50;;;;;;;4.15;2.80;;;9.20;40.90;;;;;;5026936;28;20346;-68
2021/05/06 14:46:38;;;;;;;4.47;3.08;;;9.10;42.60;;;;;;5022604;28;20045;-68
2021/05/06 14:49:25;;;;;;;5.85;3.08;;;9.20;43.50;;;;;;5025448;28;20497;-68
2021/05/06 14:52:14;;;;;;;5.15;3.67;;;9.00;43.50;;;;;;5024617;28;20120;-68
2021/05/06 14:55:07;;;;;;;5.75;3.83;;;9.00;45.50;;;;;;5027260;28;20045;-68
2021/05/06 14:57:54;;;;;;;7.80;4.03;;;9.00;46.40;;;;;;5025001;28;20091;-67
2021/05/06 15:00:42;;;;;;;7.57;4.22;;;9.10;49.10;;;;;;5024225;28;20055;-67
2021/05/06 15:03:29;;;;;;;5.95;4.00;;;9.00;47.10;;;;;;5022903;28;20045;-69
2021/05/06 15:06:17;;;;;;;6.22;4.43;;;9.10;47.60;;;;;;5026331;28;20041;-68
2021/05/06 15:09:06;;;;;;;6.28;4.40;;;9.20;47.40;;;;;;5029288;28;20578;-68
2021/05/06 15:11:55;;;;;;;6.40;4.43;;;9.10;47.00;;;;;;5023081;28;20095;-68
2021/05/06 15:14:43;;;;;;;6.80;4.60;;;9.10;48.60;;;;;;5022357;28;20446;-67
2021/05/06 15:17:30;;;;;;;6.38;4.32;;;9.10;49.10;;;;;;5024765;28;20162;-68
2021/05/06 15:20:18;;;;;;;5.68;4.10;;;9.20;49.40;;;;;;5025992;28;20104;-67
2021/05/06 15:23:05;;;;;;;6.57;4.20;;;9.20;50.50;;;;;;5022456;28;20528;-67
2021/05/06 15:25:53;;;;;;;8.70;4.65;;;9.00;49.00;;;;;;5022427;28;20045;-68
2021/05/06 15:28:40;;;;;;;9.80;5.28;;;9.10;52.10;;;;;;5026513;28;20083;-68
2021/05/06 15:31:28;;;;;;;5.47;4.72;;;9.10;53.70;;;;;;5025232;28;20041;-68
2021/05/06 15:34:15;;;;;;;7.45;4.50;;;9.10;53.20;;;;;;5022642;28;20048;-68
2021/05/06 15:37:08;;;;;;;5.47;3.45;;;9.10;53.70;;;;;;5024400;28;20091;-68
2021/05/06 15:39:56;;;;;;;4.63;2.70;;;9.10;50.50;;;;;;5029348;28;20053;-69
2021/05/06 15:42:46;;;;;;;5.88;2.70;;;8.90;45.80;;;;;;5020932;28;20049;-68
2021/05/06 15:45:34;;;;;;;6.38;2.90;;;9.10;47.60;;;;;;5026755;28;20121;-68
2021/05/06 15:48:21;;;;;;;2.95;1.98;;;9.10;45.20;;;;;;5023589;28;20042;-69
2021/05/06 15:51:08;;;;;;;4.28;2.28;;;9.50;45.90;;;;;;5026661;28;20048;-69
2021/05/06 15:53:56;;;;;;;2.85;1.73;;;9.60;41.90;;;;;;5021864;28;20045;-68
2021/05/06 15:56:43;;;;;;;3.88;1.60;;;9.50;40.20;;;;;;5020307;28;20040;-69
2021/05/06 15:59:31;;;;;;;3.25;2.03;;;9.50;37.70;;;;;;5027142;28;20046;-69
2021/05/06 16:02:21;;;;;;;3.20;2.15;;;9.70;42.70;;;;;;5024664;28;20928;-69
2021/05/06 16:05:10;;;;;;;2.38;1.88;;;9.60;42.00;;;;;;5025220;28;20048;-68
2021/05/06 16:07:58;;;;;;;4.25;2.30;;;9.40;41.20;;;;;;5020561;28;20126;-68
2021/05/06 16:10:46;;;;;;;6.78;3.67;;;9.40;44.40;;;;;;5030402;28;20139;-69
2021/05/06 16:13:33;;;;;;;7.50;2.85;;;9.40;42.60;;;;;;5026437;28;20053;-68
2021/05/06 16:16:21;;;;;;;3.97;2.67;;;9.40;45.00;;;;;;5027201;28;20485;-69
2021/05/06 16:19:10;;;;;;;6.97;3.30;;;9.30;44.30;;;;;;5029004;28;20045;-69
2021/05/06 16:21:57;;;;;;;4.32;2.42;;;9.20;45.00;;;;;;5028212;28;20053;-69
2021/05/06 16:24:45;;;;;;;3.25;1.90;;;9.20;45.70;;;;;;5023405;28;20053;-69
2021/05/06 16:27:33;;;;;;;4.22;2.88;;;9.20;45.70;;;;;;5027980;28;20054;-69
2021/05/06 16:30:21;;;;;;;5.15;3.28;;;9.20;45.80;;;;;;5029973;28;20050;-69
2021/05/06 16:33:12;;;;;;;4.55;2.63;;;9.30;47.30;;;;;;5026957;28;20550;-69
2021/05/06 16:36:05;;;;;;;3.38;2.28;;;9.30;45.80;;;;;;5029064;28;20033;-69
2021/05/06 16:38:59;;;;;;;2.20;1.67;;;9.20;45.30;;;;;;5026159;28;20098;-69
2021/05/06 16:41:51;;;;;;;2.00;1.40;;;9.10;44.50;;;;;;5029156;28;20493;-69
2021/05/06 16:44:38;;;;;;;2.03;1.40;;;9.20;42.90;;;;;;5025881;28;20124;-69
2021/05/06 16:47:26;;;;;;;2.45;1.65;;;9.10;42.90;;;;;;5024099;28;20562;-69
2021/05/06 16:50:15;;;;;;;5.68;2.67;;;9.20;42.30;;;;;;5028040;28;20037;-69
2021/05/06 16:53:03;;;;;;;4.93;2.92;;;9.10;43.70;;;;;;5025891;28;20084;-68
2021/05/06 16:55:50;;;;;;;5.15;3.03;;;9.20;41.50;;;;;;5032963;28;20045;-69
2021/05/06 16:58:37;;;;;;;4.60;2.28;;;9.20;44.50;;;;;;5026294;28;20493;-68
2021/05/06 17:01:24;;;;;;;3.03;1.55;;;9.10;44.50;;;;;;5030549;28;20053;-69
2021/05/06 17:04:12;;;;;;;2.45;1.83;;;9.10;42.80;;;;;;5023890;28;20056;-68
2021/05/06 17:07:00;;;;;;;5.20;1.95;;;9.20;40.70;;;;;;5025658;28;20493;-67
2021/05/06 17:09:48;;;;;;;4.40;1.80;;;9.10;45.60;;;;;;5027963;28;20069;-69
2021/05/06 17:12:36;;;;;;;5.35;2.45;;;9.00;45.50;;;;;;5026220;28;20056;-69
2021/05/06 17:15:23;;;;;;;4.18;2.40;;;9.00;47.30;;;;;;5029308;28;20049;-69
2021/05/06 17:18:10;;;;;;;3.67;2.50;;;8.90;49.60;;;;;;5023958;28;20668;-68
2021/05/06 17:20:58;;;;;;;5.82;2.70;;;8.90;51.70;;;;;;5028866;28;20049;-69
2021/05/06 17:23:48;;;;;;;3.72;1.75;;;8.90;53.80;;;;;;5025418;28;20096;-69
2021/05/06 17:26:35;;;;;;;3.55;2.30;;;8.80;54.70;;;;;;5029277;28;20049;-69
2021/05/06 17:29:23;;;;;;;4.18;2.40;;;8.90;55.10;;;;;;5029043;28;20847;-69
2021/05/06 17:32:10;;;;;;;4.40;2.50;;;9.00;55.70;;;;;;5021515;28;20045;-69
2021/05/06 17:34:58;;;;;;;2.63;1.95;;;9.00;56.20;;;;;;5030952;28;20127;-69
2021/05/06 17:37:45;;;;;;;4.30;2.10;;;8.90;55.70;;;;;;5023945;28;20531;-69
2021/05/06 17:40:33;;;;;;;3.78;2.55;;;8.80;56.30;;;;;;5025974;28;20167;-69
2021/05/06 17:43:20;;;;;;;5.95;3.30;;;8.90;57.20;;;;;;5024578;28;20053;-69
2021/05/06 17:46:08;;;;;;;5.65;3.30;;;9.00;57.60;;;;;;5026507;28;20505;-69
2021/05/06 17:48:57;;;;;;;5.97;3.50;;;9.10;58.30;;;;;;5026646;28;20140;-70